createdAt,value
2019-02-08T00:02:23.644Z,36.70
2019-02-08T00:04:51.520Z,32.40
2019-02-08T00:07:19.035Z,39.15
2019-02-08T00:09:46.530Z,39.50
2019-02-08T00:12:14.080Z,36.48
2019-02-08T00:14:41.594Z,35.52
2019-02-08T00:17:09.083Z,38.48
2019-02-08T00:19:36.559Z,40.98
2019-02-08T00:22:05.546Z,35.70
2019-02-08T00:24:33.289Z,35.90
2019-02-08T00:27:00.756Z,33.23
2019-02-08T00:29:28.331Z,37.78
2019-02-08T00:31:55.896Z,36.53
2019-02-08T00:34:23.431Z,43.38
2019-02-08T00:36:50.902Z,36.23
2019-02-08T00:39:18.388Z,32.85
2019-02-08T00:41:46.411Z,33.95
2019-02-08T00:44:13.884Z,38.25
2019-02-08T00:46:41.432Z,39.33
2019-02-08T00:49:09.005Z,38.13
2019-02-08T00:51:36.488Z,38.28
2019-02-08T00:54:04.011Z,38.28
2019-02-08T00:56:31.494Z,39.10
2019-02-08T00:58:58.972Z,43.10
2019-02-08T01:01:26.569Z,38.73
2019-02-08T01:03:55.605Z,35.17
2019-02-08T01:06:23.099Z,37.38
2019-02-08T01:08:50.592Z,33.90
2019-02-08T01:11:18.074Z,37.53
2019-02-08T01:13:45.579Z,42.78
2019-02-08T01:16:13.130Z,34.83
2019-02-08T01:18:40.599Z,38.13
2019-02-08T01:21:08.124Z,31.20
2019-02-08T01:23:41.098Z,38.20
2019-02-08T01:26:04.817Z,38.75
2019-02-08T01:28:32.345Z,45.65
2019-02-08T01:30:59.837Z,36.25
2019-02-08T01:33:27.311Z,36.08
2019-02-08T01:35:54.898Z,36.80
2019-02-08T01:38:22.370Z,38.58
2019-02-08T01:40:49.847Z,36.30
2019-02-08T01:43:17.362Z,35.13
2019-02-08T01:45:44.851Z,36.53
2019-02-08T01:48:12.414Z,35.98
2019-02-08T01:50:39.908Z,38.30
2019-02-08T01:53:07.456Z,37.30
2019-02-08T01:55:34.947Z,35.73
2019-02-08T01:58:02.626Z,38.38
2019-02-08T02:00:31.107Z,36.15
2019-02-08T02:02:58.782Z,32.63
2019-02-08T02:05:26.256Z,34.38
2019-02-08T02:07:53.768Z,32.38
2019-02-08T02:10:22.913Z,34.15
2019-02-08T02:12:50.458Z,33.33
2019-02-08T02:15:18.165Z,36.48
2019-02-08T02:17:45.630Z,34.98
2019-02-08T02:20:14.520Z,35.75
2019-02-08T02:22:42.016Z,35.73
2019-02-08T02:25:09.910Z,39.83
2019-02-08T02:27:37.423Z,34.98
2019-02-08T02:30:06.383Z,36.95
2019-02-08T02:32:33.883Z,33.42
2019-02-08T02:35:01.358Z,33.70
2019-02-08T02:37:28.875Z,34.40
2019-02-08T02:39:56.363Z,38.15
2019-02-08T02:42:23.854Z,35.68
2019-02-08T02:44:51.345Z,31.10
2019-02-08T02:47:18.827Z,31.93
2019-02-08T02:49:46.297Z,35.88
2019-02-08T02:52:13.855Z,36.10
2019-02-08T02:54:41.336Z,36.42
2019-02-08T02:57:08.896Z,29.72
2019-02-08T02:59:36.389Z,33.23
2019-02-08T03:02:04.275Z,34.55
2019-02-08T03:04:31.752Z,31.40
2019-02-08T03:06:59.257Z,36.05
2019-02-08T03:09:26.742Z,35.20
2019-02-08T03:11:54.221Z,35.13
2019-02-08T03:14:21.728Z,35.75
2019-02-08T03:16:49.212Z,35.10
2019-02-08T03:19:16.701Z,35.58
2019-02-08T03:21:44.209Z,29.67
2019-02-08T03:24:12.982Z,32.78
2019-02-08T03:26:40.803Z,35.83
2019-02-08T03:29:08.267Z,33.15
2019-02-08T03:31:35.897Z,30.62
2019-02-08T03:34:03.425Z,33.10
2019-02-08T03:36:30.901Z,34.03
2019-02-08T03:38:58.382Z,39.05
2019-02-08T03:41:25.888Z,35.85
2019-02-08T03:43:53.367Z,33.80
2019-02-08T03:46:20.855Z,31.37
2019-02-08T03:48:48.348Z,35.95
2019-02-08T03:51:15.855Z,31.02
2019-02-08T03:53:43.365Z,29.40
2019-02-08T03:56:10.836Z,32.05
2019-02-08T03:58:38.312Z,34.15
2019-02-08T04:01:05.888Z,31.30
2019-02-08T04:03:33.364Z,32.48
2019-02-08T04:06:00.854Z,36.03
2019-02-08T04:08:28.435Z,39.98
2019-02-08T04:10:55.919Z,35.88
2019-02-08T04:13:23.396Z,29.42
2019-02-08T04:15:50.907Z,33.13
2019-02-08T04:18:18.395Z,31.00
2019-02-08T04:20:45.872Z,29.18
2019-02-08T04:23:13.423Z,41.23
2019-02-08T04:25:40.911Z,34.55
2019-02-08T04:28:08.378Z,32.13
2019-02-08T04:30:35.868Z,35.95
2019-02-08T04:33:03.748Z,39.08
2019-02-08T04:35:31.228Z,33.25
2019-02-08T04:37:58.756Z,32.75
2019-02-08T04:40:26.636Z,29.10
2019-02-08T04:42:54.305Z,32.30
2019-02-08T04:45:22.279Z,32.35
2019-02-08T04:47:49.776Z,34.80
2019-02-08T04:50:20.939Z,48.45
2019-02-08T04:52:48.829Z,33.73
2019-02-08T04:55:16.414Z,33.90
2019-02-08T04:57:43.899Z,34.70
2019-02-08T05:00:12.888Z,29.85
2019-02-08T05:02:40.359Z,34.95
2019-02-08T05:05:07.920Z,30.70
2019-02-08T05:07:35.404Z,28.90
2019-02-08T05:10:04.489Z,31.82
2019-02-08T05:12:32.000Z,34.90
2019-02-08T05:14:59.489Z,28.12
2019-02-08T05:17:26.976Z,36.13
2019-02-08T05:19:54.470Z,30.05
2019-02-08T05:22:22.034Z,31.25
2019-02-08T05:24:49.518Z,30.85
2019-02-08T05:27:17.002Z,32.20
2019-02-08T05:29:44.512Z,35.15
2019-02-08T05:32:12.013Z,32.75
2019-02-08T05:34:39.492Z,33.60
2019-02-08T05:37:07.077Z,30.65
2019-02-08T05:39:34.540Z,41.90
2019-02-08T05:42:02.096Z,34.08
2019-02-08T05:44:29.596Z,33.85
2019-02-08T05:46:57.084Z,31.68
2019-02-08T05:49:24.557Z,28.87
2019-02-08T05:51:51.995Z,36.95
2019-02-08T05:54:19.483Z,30.60
2019-02-08T05:56:47.014Z,34.95
2019-02-08T05:59:14.569Z,32.03
2019-02-08T06:01:42.116Z,30.45
2019-02-08T06:04:09.842Z,31.75
2019-02-08T06:06:37.299Z,31.60
2019-02-08T06:09:06.255Z,30.45
2019-02-08T06:11:33.840Z,34.33
2019-02-08T06:14:01.310Z,32.33
2019-02-08T06:16:28.799Z,36.85
2019-02-08T06:18:56.318Z,35.73
2019-02-08T06:21:23.797Z,32.97
2019-02-08T06:23:51.662Z,33.10
2019-02-08T06:26:19.164Z,29.07
2019-02-08T06:28:46.640Z,35.17
2019-02-08T06:31:14.131Z,29.57
2019-02-08T06:33:41.701Z,33.67
2019-02-08T06:36:09.183Z,34.67
2019-02-08T06:38:36.642Z,34.90
2019-02-08T06:41:04.449Z,34.40
2019-02-08T06:43:31.931Z,33.30
2019-02-08T06:45:59.392Z,35.97
2019-02-08T06:48:26.888Z,30.90
2019-02-08T06:50:54.377Z,30.95
2019-02-08T06:53:21.788Z,32.08
2019-02-08T06:55:53.671Z,35.17
2019-02-08T06:58:26.116Z,29.55
2019-02-08T07:00:55.276Z,28.02
2019-02-08T07:03:30.026Z,30.10
2019-02-08T07:06:08.072Z,32.17
2019-02-08T07:08:46.350Z,37.53
2019-02-08T07:11:31.919Z,30.93
2019-02-08T07:14:17.343Z,30.83
2019-02-08T07:16:48.725Z,33.23
2019-02-08T07:19:29.835Z,31.37
2019-02-08T07:22:04.545Z,29.77
2019-02-08T07:24:33.661Z,31.67
2019-02-08T07:27:02.854Z,33.77
2019-02-08T07:29:41.113Z,36.20
2019-02-08T07:32:30.607Z,32.83
2019-02-08T07:35:11.941Z,27.60
2019-02-08T07:37:43.765Z,37.63
2019-02-08T07:40:14.367Z,32.77
2019-02-08T07:42:53.139Z,33.40
2019-02-08T07:45:22.578Z,31.47
2019-02-08T07:48:09.567Z,35.13
2019-02-08T07:50:38.672Z,29.57
2019-02-08T07:53:19.930Z,34.03
2019-02-08T07:55:58.484Z,29.20
2019-02-08T07:58:30.327Z,27.60
2019-02-08T08:01:05.159Z,33.30
2019-02-08T08:03:46.354Z,34.37
2019-02-08T08:06:21.600Z,35.27
2019-02-08T08:08:50.736Z,33.00
2019-02-08T08:11:19.861Z,33.90
2019-02-08T08:14:05.552Z,32.83
2019-02-08T08:16:43.833Z,35.87
2019-02-08T08:19:23.405Z,34.97
2019-02-08T08:22:09.164Z,35.57
2019-02-08T08:24:44.460Z,30.67
2019-02-08T08:27:19.295Z,32.50
2019-02-08T08:29:52.642Z,31.60
2019-02-08T08:32:23.227Z,32.17
2019-02-08T08:34:52.166Z,38.37
2019-02-08T08:37:37.602Z,33.90
2019-02-08T08:40:06.476Z,35.63
2019-02-08T08:42:41.390Z,36.63
2019-02-08T08:45:22.332Z,45.00
2019-02-08T08:47:54.004Z,32.40
2019-02-08T08:50:25.639Z,36.43
2019-02-08T08:53:04.612Z,35.60
2019-02-08T08:55:42.570Z,44.57
2019-02-08T08:58:14.300Z,48.10
2019-02-08T09:00:43.224Z,41.10
2019-02-08T09:03:28.712Z,58.17
2019-02-08T09:05:57.655Z,46.90
2019-02-08T09:08:32.520Z,45.13
2019-02-08T09:11:01.447Z,59.00
2019-02-08T09:13:48.621Z,41.93
2019-02-08T09:16:34.450Z,45.60
2019-02-08T09:19:06.398Z,46.00
2019-02-08T09:21:35.327Z,46.47
2019-02-08T09:24:10.443Z,41.13
2019-02-08T09:26:56.090Z,36.37
2019-02-08T09:29:42.733Z,37.47
2019-02-08T09:32:14.754Z,41.27
2019-02-08T09:34:43.737Z,38.87
2019-02-08T09:37:18.638Z,40.90
2019-02-08T09:39:56.469Z,38.80
2019-02-08T09:42:40.713Z,41.07
2019-02-08T09:45:24.735Z,43.37
2019-02-08T09:48:10.119Z,44.50
2019-02-08T09:50:39.956Z,38.90
2019-02-08T09:53:27.167Z,47.80
2019-02-08T09:56:12.791Z,41.70
2019-02-08T09:58:58.386Z,36.83
2019-02-08T10:01:33.326Z,47.03
2019-02-08T10:04:07.999Z,32.73
2019-02-08T10:06:53.732Z,36.10
2019-02-08T10:09:34.891Z,30.50
2019-02-08T10:12:03.865Z,29.23
2019-02-08T10:14:51.097Z,27.57
2019-02-08T10:17:36.797Z,30.77
2019-02-08T10:20:17.961Z,28.57
2019-02-08T10:22:49.644Z,27.57
2019-02-08T10:25:18.583Z,29.10
2019-02-08T10:28:04.039Z,29.03
2019-02-08T10:30:49.491Z,29.00
2019-02-08T10:33:34.937Z,29.20
2019-02-08T10:36:20.636Z,28.10
2019-02-08T10:39:01.774Z,27.20
2019-02-08T10:41:47.174Z,33.10
2019-02-08T10:44:16.122Z,27.90
2019-02-08T10:47:01.523Z,29.20
2019-02-08T10:49:45.439Z,33.13
2019-02-08T10:52:26.370Z,29.93
2019-02-08T10:55:10.305Z,31.07
2019-02-08T10:57:42.184Z,33.10
2019-02-08T11:00:26.389Z,29.50
2019-02-08T11:03:11.572Z,28.83
2019-02-08T11:05:57.037Z,35.67
2019-02-08T11:08:25.999Z,30.63
2019-02-08T11:11:13.068Z,34.33
2019-02-08T11:13:58.627Z,35.20
2019-02-08T11:16:44.100Z,35.20
2019-02-08T11:19:17.534Z,33.00
2019-02-08T11:21:45.697Z,34.27
2019-02-08T11:24:13.367Z,37.23
2019-02-08T11:26:40.868Z,33.10
2019-02-08T11:29:08.332Z,31.63
2019-02-08T11:31:35.900Z,34.27
2019-02-08T11:34:03.696Z,35.23
2019-02-08T11:36:31.157Z,30.97
2019-02-08T11:38:58.623Z,33.77
2019-02-08T11:41:26.109Z,31.60
2019-02-08T11:43:53.585Z,28.03
2019-02-08T11:46:21.047Z,30.60
2019-02-08T11:48:48.539Z,28.30
2019-02-08T11:51:16.012Z,30.67
2019-02-08T11:53:43.479Z,24.07
2019-02-08T11:56:10.975Z,25.90
2019-02-08T11:58:38.455Z,25.90
2019-02-08T12:01:06.001Z,26.07
2019-02-08T12:03:33.495Z,25.10
2019-02-08T12:06:01.030Z,17.33
2019-02-08T12:08:28.490Z,22.73
2019-02-08T12:10:55.986Z,23.23
2019-02-08T12:13:23.480Z,21.63
2019-02-08T12:15:50.939Z,24.80
2019-02-08T12:18:18.708Z,23.93
2019-02-08T12:20:46.314Z,25.30
2019-02-08T12:23:13.858Z,21.37
2019-02-08T12:25:41.322Z,19.80
2019-02-08T12:28:08.804Z,20.77
2019-02-08T12:30:37.462Z,24.70
2019-02-08T12:33:05.145Z,20.57
2019-02-08T12:35:32.637Z,23.80
2019-02-08T12:38:00.117Z,25.63
2019-02-08T12:40:27.606Z,22.97
2019-02-08T12:42:55.101Z,22.27
2019-02-08T12:45:22.870Z,19.10
2019-02-08T12:47:50.334Z,22.60
2019-02-08T12:50:18.537Z,20.50
2019-02-08T12:52:46.009Z,20.03
2019-02-08T12:55:15.009Z,22.93
2019-02-08T12:57:42.504Z,16.03
2019-02-08T13:00:11.446Z,17.90
2019-02-08T13:02:38.926Z,18.37
2019-02-08T13:05:08.006Z,15.67
2019-02-08T13:07:35.545Z,16.40
2019-02-08T13:10:04.552Z,17.83
2019-02-08T13:12:32.050Z,15.97
2019-02-08T13:14:59.510Z,18.10
2019-02-08T13:17:27.044Z,17.67
2019-02-08T13:19:54.541Z,14.50
2019-02-08T13:22:22.020Z,17.50
2019-02-08T13:24:49.496Z,18.50
2019-02-08T13:27:16.986Z,15.63
2019-02-08T13:29:44.456Z,15.57
2019-02-08T13:32:11.932Z,15.27
2019-02-08T13:34:39.420Z,17.40
2019-02-08T13:37:06.884Z,14.10
2019-02-08T13:39:34.346Z,13.30
2019-02-08T13:42:01.831Z,13.03
2019-02-08T13:44:29.328Z,12.33
2019-02-08T13:46:56.800Z,20.67
2019-02-08T13:49:24.282Z,16.60
2019-02-08T13:51:51.795Z,18.40
2019-02-08T13:54:19.264Z,16.80
2019-02-08T13:56:46.733Z,16.47
2019-02-08T13:59:14.238Z,15.50
2019-02-08T14:01:41.728Z,14.97
2019-02-08T14:04:09.198Z,15.47
2019-02-08T14:06:36.693Z,16.60
2019-02-08T14:09:05.696Z,18.60
2019-02-08T14:11:33.182Z,14.00
2019-02-08T14:14:02.452Z,14.63
2019-02-08T14:16:29.872Z,17.07
2019-02-08T14:18:57.337Z,15.30
2019-02-08T14:21:24.834Z,18.50
2019-02-08T14:23:52.308Z,18.53
2019-02-08T14:26:19.861Z,12.63
2019-02-08T14:28:47.363Z,16.63
2019-02-08T14:31:14.852Z,17.83
2019-02-08T14:33:42.318Z,15.73
2019-02-08T14:36:09.879Z,13.33
2019-02-08T14:38:37.383Z,16.17
2019-02-08T14:41:04.863Z,14.93
2019-02-08T14:43:32.377Z,17.37
2019-02-08T14:45:59.850Z,19.83
2019-02-08T14:48:27.316Z,20.37
2019-02-08T14:50:54.827Z,14.60
2019-02-08T14:53:22.285Z,17.20
2019-02-08T14:55:49.781Z,15.80
2019-02-08T14:58:17.260Z,24.57
2019-02-08T15:00:44.715Z,16.23
2019-02-08T15:03:12.297Z,17.27
2019-02-08T15:05:39.923Z,19.10
2019-02-08T15:08:07.401Z,19.73
2019-02-08T15:10:36.095Z,17.77
2019-02-08T15:13:03.619Z,27.37
2019-02-08T15:15:31.102Z,19.20
2019-02-08T15:17:58.581Z,24.57
2019-02-08T15:20:27.600Z,17.97
2019-02-08T15:22:55.070Z,18.93
2019-02-08T15:25:22.582Z,22.60
2019-02-08T15:27:50.080Z,19.73
2019-02-08T15:30:19.153Z,20.37
2019-02-08T15:32:46.636Z,20.30
2019-02-08T15:35:15.846Z,21.10
2019-02-08T15:37:43.319Z,20.87
2019-02-08T15:40:12.244Z,25.30
2019-02-08T15:42:39.746Z,18.77
2019-02-08T15:45:11.626Z,27.97
2019-02-08T15:47:39.198Z,30.33
2019-02-08T15:50:07.791Z,23.90
2019-02-08T15:52:35.267Z,22.70
2019-02-08T15:55:03.050Z,23.60
2019-02-08T15:57:32.324Z,21.80
2019-02-08T15:59:59.692Z,24.23
2019-02-08T16:02:27.177Z,24.50
2019-02-08T16:04:54.689Z,22.47
2019-02-08T16:07:22.166Z,22.50
2019-02-08T16:09:49.637Z,22.40
2019-02-08T16:12:17.152Z,26.80
2019-02-08T16:14:44.615Z,23.67
2019-02-08T16:17:12.457Z,23.37
2019-02-08T16:19:39.975Z,31.43
2019-02-08T16:22:07.611Z,21.10
2019-02-08T16:24:35.083Z,31.73
2019-02-08T16:27:02.589Z,30.10
2019-02-08T16:29:30.059Z,30.07
2019-02-08T16:31:57.537Z,31.50
2019-02-08T16:34:25.032Z,25.87
2019-02-08T16:36:52.501Z,28.87
2019-02-08T16:39:19.980Z,27.30
2019-02-08T16:41:47.494Z,27.10
2019-02-08T16:44:14.965Z,29.60
2019-02-08T16:46:42.430Z,32.13
2019-02-08T16:49:09.919Z,34.10
2019-02-08T16:51:37.379Z,34.93
2019-02-08T16:54:04.852Z,36.30
2019-02-08T16:56:32.416Z,40.80
2019-02-08T16:58:59.905Z,36.23
2019-02-08T17:01:27.351Z,32.37
2019-02-08T17:03:54.843Z,31.90
2019-02-08T17:06:22.413Z,31.13
2019-02-08T17:08:49.879Z,32.03
2019-02-08T17:11:17.357Z,35.97
2019-02-08T17:13:44.862Z,32.80
2019-02-08T17:16:12.439Z,32.70
2019-02-08T17:18:39.963Z,37.93
2019-02-08T17:21:07.516Z,34.90
2019-02-08T17:23:35.022Z,33.33
2019-02-08T17:26:02.479Z,33.77
2019-02-08T17:28:29.998Z,31.00
2019-02-08T17:30:57.468Z,34.93
2019-02-08T17:33:24.946Z,32.90
2019-02-08T17:35:52.464Z,34.83
2019-02-08T17:38:19.927Z,35.30
2019-02-08T17:40:50.372Z,35.77
2019-02-08T17:43:17.918Z,34.40
2019-02-08T17:45:45.392Z,28.47
2019-02-08T17:48:13.976Z,30.17
2019-02-08T17:50:41.651Z,33.43
2019-02-08T17:53:09.136Z,30.57
2019-02-08T17:55:36.638Z,30.77
2019-02-08T17:58:04.409Z,35.27
2019-02-08T18:00:43.596Z,30.97
2019-02-08T18:03:11.094Z,30.90
2019-02-08T18:05:38.577Z,38.90
2019-02-08T18:08:06.445Z,32.10
2019-02-08T18:10:33.948Z,31.63
2019-02-08T18:13:01.440Z,34.40
2019-02-08T18:15:29.134Z,30.27
2019-02-08T18:17:56.638Z,31.20
2019-02-08T18:20:31.594Z,33.27
2019-02-08T18:22:59.072Z,43.63
2019-02-08T18:25:26.564Z,40.70
2019-02-08T18:27:54.030Z,39.93
2019-02-08T18:30:27.446Z,35.60
2019-02-08T18:32:54.968Z,36.27
2019-02-08T18:35:22.539Z,38.73
2019-02-08T18:37:50.084Z,34.20
2019-02-08T18:40:21.276Z,36.43
2019-02-08T18:42:48.738Z,35.10
2019-02-08T18:45:17.686Z,33.40
2019-02-08T18:47:45.202Z,31.93
2019-02-08T18:50:14.135Z,35.50
2019-02-08T18:52:41.592Z,35.50
2019-02-08T18:55:09.135Z,34.50
2019-02-08T18:57:36.618Z,32.40
2019-02-08T19:00:05.628Z,35.00
2019-02-08T19:02:33.157Z,37.00
2019-02-08T19:05:00.702Z,41.10
2019-02-08T19:07:28.287Z,42.33
2019-02-08T19:09:55.760Z,32.97
2019-02-08T19:12:23.329Z,37.20
2019-02-08T19:14:50.811Z,37.17
2019-02-08T19:17:18.375Z,38.17
2019-02-08T19:19:45.946Z,41.10
2019-02-08T19:22:13.509Z,34.53
2019-02-08T19:24:41.006Z,31.07
2019-02-08T19:27:08.508Z,33.33
2019-02-08T19:29:35.967Z,40.43
2019-02-08T19:32:03.651Z,33.83
2019-02-08T19:34:31.208Z,35.80
2019-02-08T19:36:58.687Z,36.53
2019-02-08T19:39:26.192Z,34.07
2019-02-08T19:41:53.668Z,38.83
2019-02-08T19:44:21.148Z,34.20
2019-02-08T19:46:48.650Z,31.33
2019-02-08T19:49:16.142Z,33.80
2019-02-08T19:51:43.630Z,34.03
2019-02-08T19:54:11.147Z,35.10
2019-02-08T19:56:38.657Z,34.10
2019-02-08T19:59:06.194Z,35.40
2019-02-08T20:01:33.757Z,33.93
2019-02-08T20:04:01.278Z,35.80
2019-02-08T20:06:28.749Z,33.70
2019-02-08T20:08:56.222Z,31.60
2019-02-08T20:11:23.728Z,35.97
2019-02-08T20:13:51.206Z,43.47
2019-02-08T20:16:18.675Z,41.17
2019-02-08T20:18:46.178Z,36.77
2019-02-08T20:21:13.647Z,41.10
2019-02-08T20:23:41.198Z,37.50
2019-02-08T20:26:08.707Z,47.73
2019-02-08T20:28:42.130Z,37.53
2019-02-08T20:31:05.278Z,36.47
2019-02-08T20:33:32.800Z,37.43
2019-02-08T20:36:00.346Z,41.47
2019-02-08T20:38:27.826Z,43.30
2019-02-08T20:40:55.336Z,36.00
2019-02-08T20:43:22.737Z,36.23
2019-02-08T20:45:50.234Z,37.10
2019-02-08T20:48:18.694Z,39.93
2019-02-08T20:50:46.458Z,31.30
2019-02-08T20:53:14.030Z,37.93
2019-02-08T20:55:41.590Z,36.10
2019-02-08T20:58:10.652Z,36.03
2019-02-08T21:00:39.056Z,32.03
2019-02-08T21:03:07.830Z,40.50
2019-02-08T21:05:35.336Z,38.40
2019-02-08T21:08:02.809Z,35.23
2019-02-08T21:10:30.311Z,36.60
2019-02-08T21:12:57.851Z,44.73
2019-02-08T21:15:25.602Z,37.57
2019-02-08T21:17:53.160Z,37.90
2019-02-08T21:20:20.728Z,40.20
2019-02-08T21:22:48.191Z,37.53
2019-02-08T21:25:17.113Z,35.30
2019-02-08T21:27:44.589Z,38.00
2019-02-08T21:30:13.528Z,41.43
2019-02-08T21:32:41.056Z,37.00
2019-02-08T21:35:09.369Z,36.53
2019-02-08T21:37:36.926Z,37.47
2019-02-08T21:40:08.847Z,39.70
2019-02-08T21:42:36.311Z,40.30
2019-02-08T21:45:05.248Z,39.93
2019-02-08T21:47:33.768Z,41.90
2019-02-08T21:50:01.344Z,37.53
2019-02-08T21:52:28.846Z,41.40
2019-02-08T21:54:56.311Z,43.93
2019-02-08T21:57:23.799Z,44.13
2019-02-08T21:59:52.025Z,44.97
2019-02-08T22:02:19.535Z,50.13
2019-02-08T22:04:47.046Z,45.77
2019-02-08T22:07:14.518Z,40.83
2019-02-08T22:09:41.996Z,39.10
2019-02-08T22:12:09.553Z,43.20
2019-02-08T22:14:37.032Z,40.00
2019-02-08T22:17:04.604Z,38.53
2019-02-08T22:19:33.118Z,41.00
2019-02-08T22:22:00.657Z,43.00
2019-02-08T22:24:28.164Z,43.63
2019-02-08T22:26:55.635Z,36.80
2019-02-08T22:29:23.104Z,38.70
2019-02-08T22:31:50.606Z,36.53
2019-02-08T22:34:18.078Z,43.37
2019-02-08T22:36:45.549Z,39.67
2019-02-08T22:39:13.046Z,41.30
2019-02-08T22:41:40.524Z,45.27
2019-02-08T22:44:07.982Z,37.53
2019-02-08T22:46:35.554Z,39.40
2019-02-08T22:49:03.027Z,39.90
2019-02-08T22:51:30.492Z,38.93
2019-02-08T22:53:58.090Z,38.37
2019-02-08T22:56:25.570Z,39.40
2019-02-08T22:58:53.066Z,40.80
2019-02-08T23:01:25.375Z,42.90
2019-02-08T23:03:52.979Z,42.50
2019-02-08T23:06:20.508Z,35.17
2019-02-08T23:08:47.997Z,33.90
2019-02-08T23:11:15.488Z,39.13
2019-02-08T23:13:42.970Z,44.17
2019-02-08T23:16:11.945Z,38.50
2019-02-08T23:18:39.421Z,36.40
2019-02-08T23:21:06.888Z,39.80
2019-02-08T23:23:34.372Z,36.97
2019-02-08T23:26:01.877Z,36.80
2019-02-08T23:28:29.358Z,39.20
2019-02-08T23:30:56.840Z,41.30
2019-02-08T23:33:24.337Z,37.83
2019-02-08T23:35:51.800Z,43.27
2019-02-08T23:38:19.283Z,41.40
2019-02-08T23:40:46.775Z,36.70
2019-02-08T23:43:14.240Z,40.53
2019-02-08T23:45:41.698Z,35.77
2019-02-08T23:48:09.214Z,41.13
2019-02-08T23:50:36.679Z,40.77
2019-02-08T23:53:04.541Z,37.03
2019-02-08T23:55:32.054Z,41.53
2019-02-08T23:57:59.568Z,41.53
